Time;durP1;ratioP1;P1;durP2;ratioP2;P2;SDS_P1;SDS_P2;PMS_P1;PMS_P2;Temp;Humidity;BMP_temperature;BMP_pressure;BME280_temperature;BME280_humidity;BME280_pressure;Samples;Min_cycle;Max_cycle;Signal;HPM_P1;HPM_P2
2021/07/23 00:01:01;;;;;;;15.10;13.70;;;21.80;99.70;;;;;;5102307;28;20472;-62
2021/07/23 00:03:27;;;;;;;14.97;13.67;;;21.80;99.80;;;;;;5107262;27;20462;-62
2021/07/23 00:05:55;;;;;;;17.43;15.90;;;21.80;99.90;;;;;;5112188;28;20869;-61
2021/07/23 00:08:22;;;;;;;16.03;14.57;;;21.80;99.90;;;;;;5105333;27;20504;-61
2021/07/23 00:10:50;;;;;;;14.47;13.00;;;21.70;99.90;;;;;;5107210;27;20533;-61
2021/07/23 00:13:17;;;;;;;15.17;13.57;;;21.70;99.90;;;;;;5104047;27;20462;-61
2021/07/23 00:15:44;;;;;;;16.33;14.33;;;21.70;99.90;;;;;;5113045;27;20476;-61
2021/07/23 00:18:11;;;;;;;14.40;12.97;;;21.60;99.90;;;;;;5109265;27;20525;-61
2021/07/23 00:20:38;;;;;;;14.40;13.10;;;21.60;99.90;;;;;;5110074;28;20980;-60
2021/07/23 00:23:05;;;;;;;15.00;13.60;;;21.60;99.90;;;;;;5106922;27;20521;-62
2021/07/23 00:25:32;;;;;;;13.90;12.50;;;21.60;99.90;;;;;;5108605;28;20942;-62
2021/07/23 00:28:00;;;;;;;14.57;12.90;;;21.50;99.90;;;;;;5103411;28;20481;-62
2021/07/23 00:30:27;;;;;;;14.20;12.83;;;21.50;99.90;;;;;;5108233;28;20470;-61
2021/07/23 00:32:54;;;;;;;16.70;12.77;;;21.50;99.90;;;;;;5113314;28;20460;-60
2021/07/23 00:35:21;;;;;;;14.77;13.37;;;21.50;99.90;;;;;;5108955;27;20465;-61
2021/07/23 00:37:48;;;;;;;16.70;15.03;;;21.50;99.90;;;;;;5100215;28;20990;-61
2021/07/23 00:40:15;;;;;;;14.90;13.50;;;21.40;99.90;;;;;;5110644;27;20453;-62
2021/07/23 00:42:43;;;;;;;15.63;14.17;;;21.40;99.90;;;;;;5114459;27;20468;-61
2021/07/23 00:45:12;;;;;;;15.57;13.83;;;21.40;99.90;;;;;;5107536;28;20557;-61
2021/07/23 00:47:41;;;;;;;16.03;14.50;;;21.30;99.90;;;;;;5095692;28;20514;-61
2021/07/23 00:50:09;;;;;;;15.23;12.77;;;21.30;99.90;;;;;;5107943;27;21012;-62
2021/07/23 00:52:37;;;;;;;17.77;14.53;;;21.30;99.90;;;;;;5113609;28;20472;-62
2021/07/23 00:55:05;;;;;;;14.20;12.90;;;21.30;99.90;;;;;;5101946;28;20535;-61
2021/07/23 00:57:33;;;;;;;15.80;14.40;;;21.30;99.90;;;;;;5106454;28;20464;-61
2021/07/23 01:00:02;;;;;;;14.60;13.20;;;21.30;99.90;;;;;;5106726;28;20465;-61
2021/07/23 01:02:30;;;;;;;15.47;13.07;;;21.20;99.90;;;;;;5107885;27;20989;-62
2021/07/23 01:04:57;;;;;;;14.90;13.40;;;21.20;99.90;;;;;;5108788;28;20911;-61
2021/07/23 01:07:24;;;;;;;18.30;14.63;;;21.20;99.90;;;;;;5100222;28;20796;-61
2021/07/23 01:09:51;;;;;;;15.00;13.30;;;21.20;99.90;;;;;;5106854;27;20465;-61
2021/07/23 01:12:19;;;;;;;14.77;13.27;;;21.10;99.90;;;;;;5112403;28;20927;-61
2021/07/23 01:14:46;;;;;;;14.43;12.93;;;21.10;99.90;;;;;;5102680;28;20472;-60
2021/07/23 01:17:15;;;;;;;15.97;14.23;;;21.10;99.90;;;;;;5111970;28;20465;-60
2021/07/23 01:19:50;;;;;;;13.73;12.33;;;21.10;99.90;;;;;;5111441;28;20528;-61
2021/07/23 01:22:19;;;;;;;15.27;13.77;;;21.10;99.90;;;;;;5111406;28;20526;-61
2021/07/23 01:24:48;;;;;;;14.10;12.73;;;21.10;99.90;;;;;;5108783;28;20457;-63
2021/07/23 01:27:16;;;;;;;13.07;11.90;;;21.10;99.90;;;;;;5109367;28;20522;-60
2021/07/23 01:29:43;;;;;;;14.77;13.20;;;21.10;99.90;;;;;;5104961;28;20453;-61
2021/07/23 01:32:10;;;;;;;14.50;13.10;;;21.10;99.90;;;;;;5108889;28;20966;-61
2021/07/23 01:34:38;;;;;;;15.17;12.77;;;21.10;99.90;;;;;;5110033;27;20526;-60
2021/07/23 01:37:05;;;;;;;13.40;12.13;;;21.10;99.90;;;;;;5101035;27;20980;-62
2021/07/23 01:39:33;;;;;;;16.37;13.30;;;21.10;99.90;;;;;;5105783;27;20533;-61
2021/07/23 01:42:01;;;;;;;16.90;14.13;;;21.10;99.90;;;;;;5110686;27;20484;-61
2021/07/23 01:44:28;;;;;;;16.70;15.00;;;21.10;99.90;;;;;;5113367;28;20468;-61
2021/07/23 01:46:55;;;;;;;14.83;13.47;;;21.10;99.90;;;;;;5101110;27;20538;-62
2021/07/23 01:49:22;;;;;;;15.67;12.40;;;21.00;99.90;;;;;;5107231;27;20465;-60
2021/07/23 01:51:49;;;;;;;14.57;13.03;;;21.10;99.90;;;;;;5112888;27;20460;-61
2021/07/23 01:54:16;;;;;;;17.50;15.07;;;21.10;99.90;;;;;;5112791;27;20525;-61
2021/07/23 01:56:45;;;;;;;19.63;14.50;;;21.10;99.90;;;;;;5102681;27;20473;-61
2021/07/23 01:59:14;;;;;;;16.70;15.10;;;21.10;99.90;;;;;;5108622;27;20490;-60
2021/07/23 02:01:41;;;;;;;15.53;13.53;;;21.00;99.90;;;;;;5113162;28;20465;-62
2021/07/23 02:04:07;;;;;;;15.10;13.50;;;21.00;99.90;;;;;;5105854;28;20599;-62
2021/07/23 02:06:34;;;;;;;17.73;15.40;;;21.00;99.90;;;;;;5104200;27;20452;-62
2021/07/23 02:09:01;;;;;;;17.27;14.97;;;21.00;99.90;;;;;;5103009;28;20461;-61
2021/07/23 02:11:30;;;;;;;15.30;13.30;;;21.00;99.90;;;;;;5112410;28;20592;-61
2021/07/23 02:13:57;;;;;;;15.33;13.83;;;21.00;99.90;;;;;;5108838;28;20523;-61
2021/07/23 02:16:25;;;;;;;15.43;13.87;;;21.00;99.90;;;;;;5112992;28;21019;-61
2021/07/23 02:18:52;;;;;;;15.47;13.87;;;21.00;99.90;;;;;;5109162;28;20473;-61
2021/07/23 02:21:19;;;;;;;15.43;13.90;;;21.00;99.90;;;;;;5107872;28;21106;-62
2021/07/23 02:23:46;;;;;;;16.67;14.97;;;21.00;99.90;;;;;;5110025;28;20962;-61
2021/07/23 02:26:17;;;;;;;15.00;13.50;;;21.00;99.90;;;;;;5102508;28;20475;-62
2021/07/23 02:28:44;;;;;;;15.97;14.47;;;20.90;99.90;;;;;;5110427;28;20563;-62
2021/07/23 02:31:11;;;;;;;18.27;14.87;;;21.00;99.90;;;;;;5112957;28;20456;-62
2021/07/23 02:33:39;;;;;;;17.77;14.70;;;20.90;99.90;;;;;;5095321;28;20544;-61
2021/07/23 02:36:07;;;;;;;15.93;13.77;;;20.90;99.90;;;;;;5106939;27;20481;-61
2021/07/23 02:38:34;;;;;;;16.40;14.70;;;20.90;99.90;;;;;;5105943;27;20534;-60
2021/07/23 02:41:01;;;;;;;14.80;13.27;;;20.90;99.90;;;;;;5112813;27;20465;-62
2021/07/23 02:43:28;;;;;;;17.23;15.27;;;20.90;99.90;;;;;;5107172;28;20534;-62
2021/07/23 02:45:55;;;;;;;16.90;14.80;;;20.90;99.90;;;;;;5110642;28;20841;-61
2021/07/23 02:48:22;;;;;;;16.17;14.47;;;20.90;99.90;;;;;;5100522;28;20468;-59
2021/07/23 02:50:50;;;;;;;17.10;15.30;;;20.90;99.90;;;;;;5108534;28;20476;-61
2021/07/23 02:53:18;;;;;;;15.80;12.27;;;20.90;99.90;;;;;;5112643;28;20469;-61
2021/07/23 02:55:46;;;;;;;14.83;13.30;;;20.90;99.90;;;;;;5102223;28;20575;-61
2021/07/23 02:58:13;;;;;;;14.50;13.00;;;20.90;99.90;;;;;;5104980;27;20513;-61
2021/07/23 03:00:40;;;;;;;17.93;14.30;;;20.90;99.90;;;;;;5102486;28;20532;-60
2021/07/23 03:03:07;;;;;;;16.07;14.37;;;20.90;99.90;;;;;;5107650;28;20521;-62
2021/07/23 03:05:34;;;;;;;16.93;15.33;;;20.80;99.90;;;;;;5113243;28;20872;-61
2021/07/23 03:08:02;;;;;;;15.37;13.53;;;20.80;99.90;;;;;;5107670;28;20476;-62
2021/07/23 03:10:29;;;;;;;17.10;15.40;;;20.80;99.90;;;;;;5110941;27;20473;-62
2021/07/23 03:12:55;;;;;;;16.57;14.60;;;20.80;99.90;;;;;;5109311;28;20464;-62
2021/07/23 03:15:23;;;;;;;16.27;14.60;;;20.80;99.90;;;;;;5103043;28;20475;-61
2021/07/23 03:17:49;;;;;;;16.20;14.70;;;20.80;99.90;;;;;;5116199;28;20476;-62
2021/07/23 03:20:16;;;;;;;17.53;14.23;;;20.80;99.90;;;;;;5102831;28;20538;-61
2021/07/23 03:22:43;;;;;;;16.80;15.00;;;20.80;99.90;;;;;;5109246;28;20469;-62
2021/07/23 03:25:13;;;;;;;17.63;15.93;;;20.80;99.90;;;;;;5110529;28;20967;-61
2021/07/23 03:27:40;;;;;;;16.37;14.40;;;20.90;99.90;;;;;;5108773;28;20521;-61
2021/07/23 03:30:08;;;;;;;16.80;14.40;;;20.80;99.90;;;;;;5103979;28;20472;-61
2021/07/23 03:32:35;;;;;;;15.87;14.20;;;20.80;99.90;;;;;;5112844;28;20469;-61
2021/07/23 03:35:02;;;;;;;16.13;13.83;;;20.80;99.90;;;;;;5104942;27;20472;-62
2021/07/23 03:37:29;;;;;;;15.43;13.83;;;20.80;99.90;;;;;;5105454;28;20469;-61
2021/07/23 03:39:56;;;;;;;14.90;13.47;;;20.70;99.90;;;;;;5115687;27;20933;-62
2021/07/23 03:42:24;;;;;;;16.97;14.20;;;20.70;99.90;;;;;;5110114;27;20518;-62
2021/07/23 03:44:51;;;;;;;15.93;14.27;;;20.70;99.90;;;;;;5114281;28;20456;-62
2021/07/23 03:47:18;;;;;;;18.20;14.73;;;20.80;99.90;;;;;;5103156;28;20864;-62
2021/07/23 03:49:53;;;;;;;17.57;15.63;;;20.70;99.90;;;;;;5109857;28;20556;-61
2021/07/23 03:52:19;;;;;;;17.10;14.60;;;20.70;99.90;;;;;;5114837;28;20479;-61
2021/07/23 03:54:46;;;;;;;16.57;14.97;;;20.70;99.90;;;;;;5106995;27;20530;-61
2021/07/23 03:57:13;;;;;;;14.73;13.23;;;20.70;99.90;;;;;;5105797;27;20541;-62
2021/07/23 03:59:44;;;;;;;14.13;12.77;;;20.60;99.90;;;;;;5108641;27;20468;-61
2021/07/23 04:02:11;;;;;;;14.73;13.43;;;20.60;99.90;;;;;;5108752;28;20496;-61
2021/07/23 04:04:38;;;;;;;14.97;13.40;;;20.60;99.90;;;;;;5115219;27;20468;-61
2021/07/23 04:07:05;;;;;;;15.37;13.77;;;20.60;99.90;;;;;;5110807;27;20514;-61
2021/07/23 04:09:32;;;;;;;17.60;15.73;;;20.50;99.90;;;;;;5112140;28;20492;-60
2021/07/23 04:12:00;;;;;;;16.70;15.00;;;20.50;99.90;;;;;;5101068;27;20464;-60
2021/07/23 04:14:27;;;;;;;20.20;14.83;;;20.50;99.90;;;;;;5103550;28;20470;-61
2021/07/23 04:16:55;;;;;;;14.87;13.47;;;20.50;99.90;;;;;;5106384;28;20540;-61
2021/07/23 04:19:22;;;;;;;15.10;13.50;;;20.50;99.90;;;;;;5112816;28;20472;-61
2021/07/23 04:21:49;;;;;;;24.60;16.33;;;20.50;99.90;;;;;;5109263;27;20955;-61
2021/07/23 04:24:16;;;;;;;15.60;14.00;;;20.40;99.90;;;;;;5115103;28;20468;-61
2021/07/23 04:26:43;;;;;;;17.53;15.73;;;20.40;99.90;;;;;;5101224;28;20453;-62
2021/07/23 04:29:10;;;;;;;18.63;15.87;;;20.40;99.90;;;;;;5108924;28;20630;-61
2021/07/23 04:31:37;;;;;;;16.47;14.87;;;20.40;99.90;;;;;;5108988;28;20469;-61
2021/07/23 04:34:05;;;;;;;17.23;15.10;;;20.40;99.90;;;;;;5101275;27;21268;-63
2021/07/23 04:36:37;;;;;;;19.97;17.90;;;20.40;99.90;;;;;;5114712;27;20468;-62
2021/07/23 04:39:04;;;;;;;18.10;16.17;;;20.50;99.90;;;;;;5113532;27;20464;-62
2021/07/23 04:41:37;;;;;;;18.57;16.60;;;20.50;99.90;;;;;;5114662;27;20950;-61
2021/07/23 04:44:04;;;;;;;17.30;15.53;;;20.50;99.90;;;;;;5113891;27;20463;-61
2021/07/23 04:46:31;;;;;;;18.63;16.77;;;20.50;99.90;;;;;;5103607;27;20473;-61
2021/07/23 04:48:58;;;;;;;16.80;15.00;;;20.60;99.90;;;;;;5092149;28;20834;-60
2021/07/23 04:51:26;;;;;;;18.80;15.43;;;20.60;99.90;;;;;;5092326;28;20844;-62
2021/07/23 04:53:53;;;;;;;17.20;15.40;;;20.60;99.90;;;;;;5091417;28;20473;-60
2021/07/23 04:56:20;;;;;;;17.87;14.73;;;20.60;99.90;;;;;;5098462;28;20468;-60
2021/07/23 04:58:47;;;;;;;16.33;14.57;;;20.60;99.90;;;;;;5112241;27;20977;-61
2021/07/23 05:01:14;;;;;;;17.30;15.57;;;20.60;99.90;;;;;;5113282;27;20477;-61
2021/07/23 05:03:41;;;;;;;18.20;16.30;;;20.70;99.90;;;;;;5114760;27;20958;-62
2021/07/23 05:06:09;;;;;;;20.90;16.20;;;20.70;99.90;;;;;;5114609;27;20455;-60
2021/07/23 05:08:38;;;;;;;18.10;16.27;;;20.80;99.90;;;;;;5114673;27;20465;-61
2021/07/23 05:11:08;;;;;;;17.73;15.57;;;20.80;99.90;;;;;;5114233;27;20456;-61
2021/07/23 05:13:37;;;;;;;19.43;17.20;;;20.80;99.90;;;;;;5112336;27;20464;-61
2021/07/23 05:16:07;;;;;;;16.73;15.03;;;20.90;99.90;;;;;;5093903;28;20460;-61
2021/07/23 05:18:36;;;;;;;17.80;15.90;;;21.00;99.90;;;;;;5094159;28;20474;-61
2021/07/23 05:21:05;;;;;;;20.13;15.40;;;21.00;99.90;;;;;;5093894;28;20878;-62
2021/07/23 05:23:35;;;;;;;17.10;15.30;;;21.00;99.90;;;;;;5094173;28;20485;-60
2021/07/23 05:26:05;;;;;;;22.23;17.70;;;21.10;99.90;;;;;;5093670;28;20462;-62
2021/07/23 05:28:32;;;;;;;18.07;16.20;;;21.10;99.90;;;;;;5093000;28;20473;-60
2021/07/23 05:30:59;;;;;;;16.33;14.40;;;21.10;99.90;;;;;;5093769;28;20478;-62
2021/07/23 05:33:26;;;;;;;15.30;13.80;;;21.10;99.90;;;;;;5094016;28;20603;-60
2021/07/23 05:35:53;;;;;;;18.93;17.03;;;21.10;99.90;;;;;;5093543;28;20974;-61
2021/07/23 05:38:20;;;;;;;18.20;16.40;;;21.10;99.90;;;;;;5093695;28;20476;-60
2021/07/23 05:40:47;;;;;;;17.90;16.17;;;21.10;99.90;;;;;;5104208;27;20525;-61
2021/07/23 05:43:21;;;;;;;16.80;15.23;;;21.10;99.90;;;;;;5114349;27;20503;-61
2021/07/23 05:45:48;;;;;;;15.73;14.10;;;21.10;99.90;;;;;;5113830;27;20457;-61
2021/07/23 05:48:15;;;;;;;17.80;16.03;;;21.20;99.90;;;;;;5114038;27;20817;-61
2021/07/23 05:50:42;;;;;;;15.83;14.13;;;21.20;99.90;;;;;;5114044;27;20989;-61
2021/07/23 05:53:11;;;;;;;17.03;15.23;;;21.20;99.90;;;;;;5113642;27;20456;-61
2021/07/23 05:55:38;;;;;;;17.80;14.83;;;21.30;99.90;;;;;;5113746;27;20541;-61
2021/07/23 05:58:05;;;;;;;19.80;17.07;;;21.30;99.90;;;;;;5113286;27;20518;-61
2021/07/23 06:00:33;;;;;;;20.33;18.10;;;21.40;99.90;;;;;;5114015;27;20468;-62
2021/07/23 06:03:08;;;;;;;19.10;17.23;;;21.40;99.90;;;;;;5113339;27;20460;-61
2021/07/23 06:05:35;;;;;;;21.83;17.67;;;21.50;99.90;;;;;;5113742;27;20468;-62
2021/07/23 06:08:02;;;;;;;17.73;15.93;;;21.60;99.90;;;;;;5113349;27;20464;-62
2021/07/23 06:10:29;;;;;;;23.80;17.70;;;21.60;99.90;;;;;;5113702;27;20461;-62
2021/07/23 06:12:58;;;;;;;18.67;16.47;;;21.70;99.90;;;;;;5113152;27;20461;-62
2021/07/23 06:15:25;;;;;;;21.13;16.40;;;21.80;99.90;;;;;;5095792;28;20462;-63
2021/07/23 06:17:53;;;;;;;16.20;14.60;;;21.80;99.90;;;;;;5092556;28;20560;-60
2021/07/23 06:20:20;;;;;;;16.07;14.47;;;21.90;99.90;;;;;;5093131;28;20488;-62
2021/07/23 06:22:47;;;;;;;19.60;16.47;;;22.00;99.90;;;;;;5093260;28;20473;-62
2021/07/23 06:25:24;;;;;;;16.83;14.97;;;22.10;99.90;;;;;;5092861;28;20457;-62
2021/07/23 06:27:51;;;;;;;16.30;14.70;;;22.20;99.90;;;;;;5092552;28;20791;-61
2021/07/23 06:30:19;;;;;;;20.70;16.33;;;22.30;99.90;;;;;;5092983;28;21020;-61
2021/07/23 06:32:45;;;;;;;15.60;14.10;;;22.40;99.90;;;;;;5092971;28;20469;-61
2021/07/23 06:35:16;;;;;;;18.90;16.00;;;22.50;99.90;;;;;;5092511;28;20996;-61
2021/07/23 06:37:51;;;;;;;16.37;14.77;;;22.60;99.90;;;;;;5092699;28;20861;-60
2021/07/23 06:40:18;;;;;;;16.37;14.20;;;22.70;99.90;;;;;;5098929;27;20462;-62
2021/07/23 06:42:45;;;;;;;14.40;12.90;;;22.90;99.90;;;;;;5113184;27;20465;-59
2021/07/23 06:45:13;;;;;;;14.93;13.53;;;23.00;99.90;;;;;;5112911;27;20459;-62
2021/07/23 06:47:43;;;;;;;15.03;13.60;;;23.10;99.90;;;;;;5113220;27;20471;-61
2021/07/23 06:50:16;;;;;;;13.87;12.53;;;23.30;99.90;;;;;;5112682;27;20996;-61
2021/07/23 06:52:44;;;;;;;14.33;12.93;;;23.40;99.90;;;;;;5102683;27;20994;-61
2021/07/23 06:55:12;;;;;;;14.83;11.93;;;23.60;99.50;;;;;;5092227;28;20477;-62
2021/07/23 06:57:41;;;;;;;13.17;11.87;;;23.70;99.20;;;;;;5110021;28;20473;-60
2021/07/23 07:00:10;;;;;;;14.30;12.90;;;23.90;99.00;;;;;;5112630;27;20468;-60
2021/07/23 07:02:37;;;;;;;13.30;12.10;;;24.00;98.70;;;;;;5113195;27;20545;-61
2021/07/23 07:05:04;;;;;;;15.37;13.77;;;24.20;98.40;;;;;;5112534;27;20803;-61
2021/07/23 07:07:31;;;;;;;13.80;12.57;;;24.30;97.90;;;;;;5112859;27;20651;-61
2021/07/23 07:09:59;;;;;;;11.57;10.43;;;24.50;97.50;;;;;;5112619;27;20465;-61
2021/07/23 07:12:26;;;;;;;11.03;9.93;;;24.60;97.10;;;;;;5112796;27;20457;-60
2021/07/23 07:14:53;;;;;;;13.17;11.20;;;24.80;96.80;;;;;;5113070;27;20965;-61
2021/07/23 07:17:20;;;;;;;10.77;9.67;;;24.90;96.40;;;;;;5112306;27;20456;-60
2021/07/23 07:19:49;;;;;;;15.13;12.30;;;25.00;95.80;;;;;;5112537;27;20461;-61
2021/07/23 07:22:16;;;;;;;13.43;10.80;;;25.10;95.10;;;;;;5112505;27;20518;-61
2021/07/23 07:24:48;;;;;;;11.90;10.90;;;25.10;95.20;;;;;;5112870;27;20479;-61
2021/07/23 07:27:27;;;;;;;11.97;10.80;;;25.10;94.90;;;;;;5112276;27;20475;-61
2021/07/23 07:29:54;;;;;;;10.57;9.67;;;25.10;94.60;;;;;;5112810;27;20499;-60
2021/07/23 07:32:21;;;;;;;12.73;11.40;;;25.10;94.50;;;;;;5112487;27;20946;-62
2021/07/23 07:34:48;;;;;;;12.30;11.00;;;25.00;94.20;;;;;;5112656;27;20986;-61
2021/07/23 07:37:17;;;;;;;14.67;12.10;;;25.00;94.30;;;;;;5112050;27;21099;-61
2021/07/23 07:39:44;;;;;;;9.63;8.80;;;25.00;94.00;;;;;;5112604;27;20464;-62
2021/07/23 07:42:11;;;;;;;12.87;11.10;;;25.10;94.10;;;;;;5112215;27;20464;-60
2021/07/23 07:44:39;;;;;;;13.30;9.60;;;25.10;93.60;;;;;;5112533;27;20973;-60
2021/07/23 07:47:11;;;;;;;10.73;9.70;;;25.20;93.10;;;;;;5111979;27;20521;-60
2021/07/23 07:49:38;;;;;;;10.70;9.60;;;25.10;93.30;;;;;;5112508;27;21005;-61
2021/07/23 07:52:05;;;;;;;9.53;8.57;;;25.20;93.10;;;;;;5109192;27;20469;-60
2021/07/23 07:54:34;;;;;;;10.53;8.60;;;25.20;93.10;;;;;;5095770;28;20461;-61
2021/07/23 07:57:06;;;;;;;9.30;8.30;;;25.40;92.30;;;;;;5107527;27;20853;-61
2021/07/23 07:59:33;;;;;;;10.90;9.80;;;25.40;92.30;;;;;;5115929;27;20525;-61
2021/07/23 08:02:02;;;;;;;9.63;8.83;;;25.50;92.40;;;;;;5115777;27;20464;-61
2021/07/23 08:04:29;;;;;;;8.93;8.13;;;25.70;91.80;;;;;;5116146;27;20463;-61
2021/07/23 08:06:56;;;;;;;8.70;7.77;;;25.80;91.70;;;;;;5115960;27;20548;-61
2021/07/23 08:09:23;;;;;;;8.47;7.70;;;25.80;91.20;;;;;;5115777;27;20797;-61
2021/07/23 08:11:50;;;;;;;8.67;7.87;;;25.90;90.90;;;;;;5115968;27;20575;-61
2021/07/23 08:14:17;;;;;;;9.60;8.20;;;25.90;90.40;;;;;;5115605;27;20468;-61
2021/07/23 08:16:46;;;;;;;10.87;8.57;;;25.90;90.40;;;;;;5116005;27;20468;-60
2021/07/23 08:19:24;;;;;;;10.93;9.63;;;25.90;90.50;;;;;;5115270;27;20472;-61
2021/07/23 08:21:54;;;;;;;10.00;9.10;;;25.80;90.60;;;;;;5115747;27;20475;-61
2021/07/23 08:24:20;;;;;;;9.60;8.70;;;25.80;90.60;;;;;;5115148;27;20460;-61
2021/07/23 08:26:47;;;;;;;9.30;8.33;;;25.80;90.30;;;;;;5115780;27;20472;-61
2021/07/23 08:29:14;;;;;;;9.20;8.40;;;25.80;90.30;;;;;;5115154;27;20468;-61
2021/07/23 08:31:41;;;;;;;13.53;9.80;;;25.70;90.40;;;;;;5115844;27;20852;-61
2021/07/23 08:34:08;;;;;;;10.20;8.47;;;25.70;90.50;;;;;;5114773;27;20464;-60
2021/07/23 08:36:36;;;;;;;8.53;7.83;;;25.70;90.30;;;;;;5115251;27;20544;-61
2021/07/23 08:39:03;;;;;;;8.80;8.10;;;25.70;90.50;;;;;;5114997;27;20536;-61
2021/07/23 08:41:31;;;;;;;8.67;7.30;;;25.70;90.60;;;;;;5114616;27;20840;-61
2021/07/23 08:43:58;;;;;;;7.73;7.13;;;25.80;90.20;;;;;;5114819;27;20464;-61
2021/07/23 08:46:27;;;;;;;7.93;7.17;;;25.70;90.20;;;;;;5115043;27;20976;-61
2021/07/23 08:48:54;;;;;;;7.93;7.23;;;25.60;90.50;;;;;;5115158;27;20471;-61
2021/07/23 08:51:21;;;;;;;8.40;7.40;;;25.70;90.60;;;;;;5114811;27;20846;-61
2021/07/23 08:53:49;;;;;;;9.00;7.97;;;25.80;90.20;;;;;;5115082;27;20467;-61
2021/07/23 08:56:16;;;;;;;9.20;8.30;;;25.70;90.30;;;;;;5114766;27;20548;-61
2021/07/23 08:58:43;;;;;;;9.07;8.27;;;25.80;90.50;;;;;;5114937;27;20465;-61
2021/07/23 09:01:10;;;;;;;8.93;8.23;;;25.90;90.00;;;;;;5114666;27;20538;-61
2021/07/23 09:03:37;;;;;;;9.53;8.83;;;25.90;90.00;;;;;;5114796;27;20525;-62
2021/07/23 09:06:15;;;;;;;8.70;7.83;;;26.00;89.80;;;;;;5114347;27;20468;-61
2021/07/23 09:08:51;;;;;;;9.07;8.17;;;26.10;89.50;;;;;;5114728;27;20548;-61
2021/07/23 09:11:26;;;;;;;8.20;7.50;;;26.20;87.50;;;;;;5114738;27;20537;-62
2021/07/23 09:13:53;;;;;;;8.43;7.63;;;26.20;87.80;;;;;;5114706;27;20997;-62
2021/07/23 09:16:27;;;;;;;9.37;8.40;;;26.20;87.90;;;;;;5114344;27;20525;-61
2021/07/23 09:19:07;;;;;;;8.07;7.40;;;26.30;87.80;;;;;;5114697;27;20853;-61
2021/07/23 09:21:37;;;;;;;8.33;7.63;;;26.30;87.50;;;;;;5114582;27;21631;-62
2021/07/23 09:24:05;;;;;;;9.40;7.97;;;26.30;86.80;;;;;;5114471;27;21014;-62
2021/07/23 09:26:43;;;;;;;8.60;7.80;;;26.30;86.70;;;;;;5114042;27;20525;-60
2021/07/23 09:29:10;;;;;;;9.50;7.70;;;26.30;87.50;;;;;;5114313;27;20860;-61
2021/07/23 09:31:37;;;;;;;10.30;8.50;;;26.30;87.40;;;;;;5114270;27;20456;-60
2021/07/23 09:34:05;;;;;;;8.37;7.63;;;26.20;87.80;;;;;;5114173;27;20472;-61
2021/07/23 09:36:32;;;;;;;9.40;8.60;;;26.30;88.60;;;;;;5113809;27;20560;-61
2021/07/23 09:39:03;;;;;;;9.10;8.40;;;26.30;88.20;;;;;;5114075;27;20953;-61
2021/07/23 09:41:33;;;;;;;8.70;8.00;;;26.30;87.70;;;;;;5113770;27;20461;-62
2021/07/23 09:44:01;;;;;;;9.37;8.57;;;26.30;88.00;;;;;;5114029;27;21025;-62
2021/07/23 09:46:33;;;;;;;9.37;8.57;;;26.30;88.20;;;;;;5113715;27;20456;-62
2021/07/23 09:49:02;;;;;;;10.03;9.03;;;26.20;88.20;;;;;;5113914;27;20472;-61
2021/07/23 09:51:29;;;;;;;9.63;8.80;;;26.20;87.90;;;;;;5113291;27;20545;-61
2021/07/23 09:53:57;;;;;;;7.90;7.10;;;26.20;88.00;;;;;;5113783;27;20802;-62
2021/07/23 09:56:26;;;;;;;8.50;7.70;;;26.20;88.10;;;;;;5113410;27;20518;-62
2021/07/23 09:59:06;;;;;;;9.70;8.90;;;26.20;88.40;;;;;;5113756;27;21019;-61
2021/07/23 10:01:42;;;;;;;10.20;9.20;;;26.20;88.50;;;;;;5113498;27;20487;-61
2021/07/23 10:04:13;;;;;;;12.53;10.43;;;26.20;88.40;;;;;;5113791;27;20525;-62
2021/07/23 10:06:48;;;;;;;10.90;9.80;;;26.20;87.50;;;;;;5113491;27;20460;-61
2021/07/23 10:09:19;;;;;;;10.50;9.60;;;26.20;87.60;;;;;;5113443;27;20559;-61
2021/07/23 10:11:47;;;;;;;9.57;8.77;;;26.10;88.00;;;;;;5113410;27;20460;-63
2021/07/23 10:14:26;;;;;;;9.23;8.47;;;26.10;88.40;;;;;;5113224;27;20518;-59
2021/07/23 10:16:52;;;;;;;10.80;9.50;;;26.10;88.60;;;;;;5113496;27;21119;-61
2021/07/23 10:19:23;;;;;;;10.60;9.60;;;26.00;88.70;;;;;;5113351;27;20464;-60
2021/07/23 10:21:50;;;;;;;9.53;8.87;;;26.10;88.60;;;;;;5112984;27;20513;-62
2021/07/23 10:24:18;;;;;;;9.63;8.80;;;26.10;88.60;;;;;;5113195;27;20841;-61
2021/07/23 10:26:46;;;;;;;11.97;10.77;;;26.10;88.70;;;;;;5112938;27;20560;-62
2021/07/23 10:29:15;;;;;;;11.23;9.37;;;26.10;89.20;;;;;;5113315;27;20521;-62
2021/07/23 10:31:43;;;;;;;13.07;11.50;;;26.20;88.90;;;;;;5112867;27;20858;-61
2021/07/23 10:34:11;;;;;;;10.90;9.80;;;26.20;88.30;;;;;;5113437;27;20517;-61
2021/07/23 10:36:42;;;;;;;11.50;10.50;;;26.20;87.30;;;;;;5112884;27;20551;-61
2021/07/23 10:39:11;;;;;;;10.07;9.20;;;26.30;87.60;;;;;;5112972;27;20539;-61
2021/07/23 10:41:39;;;;;;;10.30;9.20;;;26.30;87.60;;;;;;5112833;27;20566;-61
2021/07/23 10:44:12;;;;;;;9.47;8.63;;;26.20;87.80;;;;;;5113380;27;20881;-61
2021/07/23 10:46:57;;;;;;;10.03;9.23;;;26.20;87.60;;;;;;5112915;27;20552;-61
2021/07/23 10:49:46;;;;;;;11.23;10.10;;;26.30;87.00;;;;;;5112801;27;20478;-60
2021/07/23 10:52:27;;;;;;;10.80;9.57;;;26.30;87.00;;;;;;5111055;27;20456;-60
2021/07/23 10:55:25;;;;;;;10.93;9.87;;;26.30;87.10;;;;;;5112699;28;20543;-60
2021/07/23 10:58:41;;;;;;;9.87;8.97;;;26.10;86.70;;;;;;5117457;28;20456;-59
2021/07/23 11:01:08;;;;;;;10.10;9.20;;;26.10;86.60;;;;;;5111852;27;20833;-60
2021/07/23 11:03:51;;;;;;;9.43;8.43;;;26.10;87.10;;;;;;5109020;28;20464;-60
2021/07/23 11:06:19;;;;;;;10.60;9.60;;;26.10;87.20;;;;;;5112641;27;20949;-60
2021/07/23 11:08:50;;;;;;;9.53;8.73;;;26.00;87.20;;;;;;5112348;27;20524;-61
2021/07/23 11:11:19;;;;;;;11.80;10.70;;;26.00;88.00;;;;;;5112224;27;20648;-60
2021/07/23 11:13:46;;;;;;;11.23;9.37;;;26.00;88.40;;;;;;5102071;27;20858;-60
2021/07/23 11:16:14;;;;;;;9.13;8.40;;;26.00;88.20;;;;;;5110216;28;20496;-60
2021/07/23 11:18:53;;;;;;;12.73;11.00;;;26.00;88.20;;;;;;5109951;28;20476;-61
2021/07/23 11:21:20;;;;;;;15.23;10.37;;;26.10;88.20;;;;;;5102451;28;21118;-61
2021/07/23 11:23:48;;;;;;;13.10;11.80;;;26.00;88.10;;;;;;5112723;28;20533;-61
2021/07/23 11:26:22;;;;;;;16.23;14.67;;;26.10;88.10;;;;;;5102813;27;20540;-61
2021/07/23 11:28:50;;;;;;;14.17;12.97;;;26.20;88.00;;;;;;5101849;28;20465;-59
2021/07/23 11:31:30;;;;;;;15.73;14.13;;;26.20;87.60;;;;;;5113104;28;20467;-61
2021/07/23 11:33:59;;;;;;;16.10;14.60;;;26.30;87.10;;;;;;5113243;28;20659;-61
2021/07/23 11:36:39;;;;;;;11.13;10.03;;;26.30;87.00;;;;;;5102033;27;20464;-60
2021/07/23 11:39:08;;;;;;;11.70;10.70;;;26.30;86.90;;;;;;5115775;27;20478;-61
2021/07/23 11:41:36;;;;;;;12.70;11.37;;;26.30;86.90;;;;;;5116450;28;20453;-61
2021/07/23 11:44:10;;;;;;;11.97;10.97;;;26.30;86.40;;;;;;5116179;27;20464;-60
2021/07/23 11:46:38;;;;;;;10.43;9.53;;;26.30;86.60;;;;;;5116392;27;20463;-60
2021/07/23 11:49:06;;;;;;;11.53;10.40;;;26.30;85.80;;;;;;5112840;28;20982;-60
2021/07/23 11:51:44;;;;;;;11.73;10.67;;;26.40;84.80;;;;;;5101786;28;20517;-60
2021/07/23 11:54:12;;;;;;;10.00;9.10;;;26.40;85.30;;;;;;5115838;27;20472;-59
2021/07/23 11:56:39;;;;;;;10.07;9.17;;;26.40;85.40;;;;;;5116264;27;20521;-60
2021/07/23 11:59:06;;;;;;;13.80;10.30;;;26.50;85.70;;;;;;5112940;28;20464;-60
2021/07/23 12:01:37;;;;;;;11.17;9.80;;;26.50;86.10;;;;;;5112182;28;20460;-59
2021/07/23 12:04:06;;;;;;;10.10;9.30;;;26.50;85.70;;;;;;5113523;28;20485;-61
2021/07/23 12:06:33;;;;;;;10.43;9.40;;;26.50;85.70;;;;;;5101216;27;20460;-61
2021/07/23 12:09:04;;;;;;;11.10;9.83;;;26.50;86.30;;;;;;5115710;27;20464;-59
2021/07/23 12:11:32;;;;;;;14.70;13.30;;;26.60;85.80;;;;;;5108632;27;20810;-61
2021/07/23 12:14:05;;;;;;;12.63;11.30;;;26.60;85.50;;;;;;5098123;27;20464;-60
2021/07/23 12:16:32;;;;;;;11.10;10.00;;;26.50;85.70;;;;;;5115938;27;20513;-60
2021/07/23 12:19:03;;;;;;;10.53;9.63;;;26.50;86.30;;;;;;5106254;27;20473;-61
2021/07/23 12:21:31;;;;;;;12.63;11.47;;;26.40;86.60;;;;;;5095522;28;20809;-60
2021/07/23 12:24:02;;;;;;;13.63;12.43;;;26.50;85.40;;;;;;5095559;28;20473;-60
2021/07/23 12:26:30;;;;;;;13.77;12.37;;;26.50;84.50;;;;;;5095614;28;21115;-60
2021/07/23 12:28:59;;;;;;;10.40;9.50;;;26.60;84.60;;;;;;5115583;27;20543;-60
2021/07/23 12:31:26;;;;;;;13.57;12.37;;;26.60;84.80;;;;;;5115259;27;20460;-60
2021/07/23 12:34:07;;;;;;;12.10;10.90;;;26.60;84.20;;;;;;5115772;27;21007;-60
2021/07/23 12:36:43;;;;;;;14.77;13.27;;;26.60;84.30;;;;;;5115234;27;20513;-59
2021/07/23 12:39:11;;;;;;;12.90;11.70;;;26.70;85.00;;;;;;5114712;27;20861;-59